sensor_id;sensor_type;location;lat;lon;timestamp;P1;durP1;ratioP1;P2;durP2;ratioP2
4096;SDS011;2062;50.694;7.246;2024-03-08T00:00:58;23.60;;;10.57;;
4096;SDS011;2062;50.694;7.246;2024-03-08T00:03:25;25.13;;;10.63;;
4096;SDS011;2062;50.694;7.246;2024-03-08T00:05:54;24.13;;;10.77;;
4096;SDS011;2062;50.694;7.246;2024-03-08T00:08:21;23.85;;;10.60;;
4096;SDS011;2062;50.694;7.246;2024-03-08T00:10:49;25.05;;;10.18;;
4096;SDS011;2062;50.694;7.246;2024-03-08T00:13:16;22.27;;;10.80;;
4096;SDS011;2062;50.694;7.246;2024-03-08T00:15:43;24.13;;;10.53;;
4096;SDS011;2062;50.694;7.246;2024-03-08T00:18:10;23.25;;;10.80;;
4096;SDS011;2062;50.694;7.246;2024-03-08T00:20:37;22.08;;;9.88;;
4096;SDS011;2062;50.694;7.246;2024-03-08T00:23:04;26.52;;;10.73;;
4096;SDS011;2062;50.694;7.246;2024-03-08T00:25:31;21.52;;;9.57;;
4096;SDS011;2062;50.694;7.246;2024-03-08T00:28:00;22.17;;;10.20;;
4096;SDS011;2062;50.694;7.246;2024-03-08T00:30:27;27.92;;;10.80;;
4096;SDS011;2062;50.694;7.246;2024-03-08T00:32:54;24.42;;;10.90;;
4096;SDS011;2062;50.694;7.246;2024-03-08T00:35:23;26.23;;;10.85;;
4096;SDS011;2062;50.694;7.246;2024-03-08T00:37:50;26.75;;;10.35;;
4096;SDS011;2062;50.694;7.246;2024-03-08T00:40:17;24.23;;;11.30;;
4096;SDS011;2062;50.694;7.246;2024-03-08T00:42:43;25.30;;;10.65;;
4096;SDS011;2062;50.694;7.246;2024-03-08T00:45:12;22.83;;;10.27;;
4096;SDS011;2062;50.694;7.246;2024-03-08T00:47:38;20.38;;;9.68;;
4096;SDS011;2062;50.694;7.246;2024-03-08T00:50:07;25.30;;;11.00;;
4096;SDS011;2062;50.694;7.246;2024-03-08T00:52:34;24.27;;;10.27;;
4096;SDS011;2062;50.694;7.246;2024-03-08T00:55:01;28.02;;;10.88;;
4096;SDS011;2062;50.694;7.246;2024-03-08T00:57:27;24.17;;;9.82;;
4096;SDS011;2062;50.694;7.246;2024-03-08T00:59:55;31.67;;;10.88;;
4096;SDS011;2062;50.694;7.246;2024-03-08T01:02:23;23.20;;;10.27;;
4096;SDS011;2062;50.694;7.246;2024-03-08T01:04:50;24.40;;;10.10;;
4096;SDS011;2062;50.694;7.246;2024-03-08T01:07:17;26.30;;;10.45;;
4096;SDS011;2062;50.694;7.246;2024-03-08T01:09:43;25.33;;;10.18;;
4096;SDS011;2062;50.694;7.246;2024-03-08T01:12:10;23.33;;;9.98;;
4096;SDS011;2062;50.694;7.246;2024-03-08T01:14:37;25.00;;;10.25;;
4096;SDS011;2062;50.694;7.246;2024-03-08T01:17:04;24.47;;;10.87;;
4096;SDS011;2062;50.694;7.246;2024-03-08T01:19:32;24.48;;;9.85;;
4096;SDS011;2062;50.694;7.246;2024-03-08T01:21:58;26.58;;;10.63;;
4096;SDS011;2062;50.694;7.246;2024-03-08T01:24:25;27.25;;;10.68;;
4096;SDS011;2062;50.694;7.246;2024-03-08T01:26:52;23.83;;;10.30;;
4096;SDS011;2062;50.694;7.246;2024-03-08T01:29:19;25.47;;;10.37;;
4096;SDS011;2062;50.694;7.246;2024-03-08T01:31:45;24.48;;;10.20;;
4096;SDS011;2062;50.694;7.246;2024-03-08T01:34:12;23.73;;;10.20;;
4096;SDS011;2062;50.694;7.246;2024-03-08T01:36:40;23.77;;;10.07;;
4096;SDS011;2062;50.694;7.246;2024-03-08T01:39:07;28.85;;;10.48;;
4096;SDS011;2062;50.694;7.246;2024-03-08T01:41:34;26.57;;;10.70;;
4096;SDS011;2062;50.694;7.246;2024-03-08T01:44:01;23.15;;;10.18;;
4096;SDS011;2062;50.694;7.246;2024-03-08T01:46:29;23.88;;;10.30;;
4096;SDS011;2062;50.694;7.246;2024-03-08T01:48:57;27.45;;;10.52;;
4096;SDS011;2062;50.694;7.246;2024-03-08T01:51:25;23.92;;;9.65;;
4096;SDS011;2062;50.694;7.246;2024-03-08T01:53:54;29.17;;;11.03;;
4096;SDS011;2062;50.694;7.246;2024-03-08T01:56:23;24.95;;;10.18;;
4096;SDS011;2062;50.694;7.246;2024-03-08T01:58:51;24.58;;;10.25;;
4096;SDS011;2062;50.694;7.246;2024-03-08T02:01:18;26.73;;;9.93;;
4096;SDS011;2062;50.694;7.246;2024-03-08T02:03:45;27.33;;;10.07;;
4096;SDS011;2062;50.694;7.246;2024-03-08T02:06:12;23.27;;;10.03;;
4096;SDS011;2062;50.694;7.246;2024-03-08T02:08:41;25.55;;;10.50;;
4096;SDS011;2062;50.694;7.246;2024-03-08T02:11:10;25.42;;;10.20;;
4096;SDS011;2062;50.694;7.246;2024-03-08T02:13:37;26.25;;;10.20;;
4096;SDS011;2062;50.694;7.246;2024-03-08T02:16:04;25.92;;;10.48;;
4096;SDS011;2062;50.694;7.246;2024-03-08T02:18:32;25.87;;;9.77;;
4096;SDS011;2062;50.694;7.246;2024-03-08T02:21:02;24.35;;;9.75;;
4096;SDS011;2062;50.694;7.246;2024-03-08T02:23:29;24.63;;;10.18;;
4096;SDS011;2062;50.694;7.246;2024-03-08T02:25:57;28.27;;;10.07;;
4096;SDS011;2062;50.694;7.246;2024-03-08T02:28:24;25.20;;;9.60;;
4096;SDS011;2062;50.694;7.246;2024-03-08T02:30:51;24.93;;;8.97;;
4096;SDS011;2062;50.694;7.246;2024-03-08T02:33:19;25.80;;;9.68;;
4096;SDS011;2062;50.694;7.246;2024-03-08T02:35:46;26.95;;;9.88;;
4096;SDS011;2062;50.694;7.246;2024-03-08T02:38:15;26.48;;;10.93;;
4096;SDS011;2062;50.694;7.246;2024-03-08T02:40:44;24.98;;;10.55;;
4096;SDS011;2062;50.694;7.246;2024-03-08T02:43:11;24.00;;;9.80;;
4096;SDS011;2062;50.694;7.246;2024-03-08T02:45:39;24.48;;;9.95;;
4096;SDS011;2062;50.694;7.246;2024-03-08T02:48:07;23.38;;;9.10;;
4096;SDS011;2062;50.694;7.246;2024-03-08T02:50:34;24.70;;;9.80;;
4096;SDS011;2062;50.694;7.246;2024-03-08T02:53:01;20.45;;;9.27;;
4096;SDS011;2062;50.694;7.246;2024-03-08T02:55:29;25.83;;;10.23;;
4096;SDS011;2062;50.694;7.246;2024-03-08T02:57:56;25.63;;;10.18;;
4096;SDS011;2062;50.694;7.246;2024-03-08T03:00:24;24.52;;;8.85;;
4096;SDS011;2062;50.694;7.246;2024-03-08T03:02:51;25.83;;;10.18;;
4096;SDS011;2062;50.694;7.246;2024-03-08T03:05:18;24.58;;;9.43;;
4096;SDS011;2062;50.694;7.246;2024-03-08T03:07:45;24.50;;;10.40;;
4096;SDS011;2062;50.694;7.246;2024-03-08T03:10:13;24.75;;;9.65;;
4096;SDS011;2062;50.694;7.246;2024-03-08T03:12:43;24.75;;;9.98;;
4096;SDS011;2062;50.694;7.246;2024-03-08T03:15:11;27.67;;;11.05;;
4096;SDS011;2062;50.694;7.246;2024-03-08T03:17:37;25.95;;;10.20;;
4096;SDS011;2062;50.694;7.246;2024-03-08T03:20:05;27.13;;;10.50;;
4096;SDS011;2062;50.694;7.246;2024-03-08T03:22:36;26.77;;;10.55;;
4096;SDS011;2062;50.694;7.246;2024-03-08T03:25:03;24.67;;;9.90;;
4096;SDS011;2062;50.694;7.246;2024-03-08T03:27:31;25.20;;;9.57;;
4096;SDS011;2062;50.694;7.246;2024-03-08T03:29:59;25.38;;;9.57;;
4096;SDS011;2062;50.694;7.246;2024-03-08T03:32:45;28.63;;;10.60;;
4096;SDS011;2062;50.694;7.246;2024-03-08T03:35:13;26.15;;;9.70;;
4096;SDS011;2062;50.694;7.246;2024-03-08T03:37:40;31.80;;;10.45;;
4096;SDS011;2062;50.694;7.246;2024-03-08T03:40:10;23.02;;;9.65;;
4096;SDS011;2062;50.694;7.246;2024-03-08T03:42:38;22.70;;;9.13;;
4096;SDS011;2062;50.694;7.246;2024-03-08T03:45:06;24.73;;;9.50;;
4096;SDS011;2062;50.694;7.246;2024-03-08T03:47:35;28.88;;;10.85;;
4096;SDS011;2062;50.694;7.246;2024-03-08T03:50:03;22.25;;;9.23;;
4096;SDS011;2062;50.694;7.246;2024-03-08T03:52:30;26.25;;;10.27;;
4096;SDS011;2062;50.694;7.246;2024-03-08T03:54:57;26.92;;;10.57;;
4096;SDS011;2062;50.694;7.246;2024-03-08T03:57:24;27.43;;;9.67;;
4096;SDS011;2062;50.694;7.246;2024-03-08T03:59:51;26.83;;;10.65;;
4096;SDS011;2062;50.694;7.246;2024-03-08T04:02:19;27.50;;;9.68;;
4096;SDS011;2062;50.694;7.246;2024-03-08T04:04:46;25.42;;;9.20;;
4096;SDS011;2062;50.694;7.246;2024-03-08T04:07:13;29.17;;;10.65;;
4096;SDS011;2062;50.694;7.246;2024-03-08T04:09:39;25.73;;;9.50;;
4096;SDS011;2062;50.694;7.246;2024-03-08T04:12:06;24.40;;;9.07;;
4096;SDS011;2062;50.694;7.246;2024-03-08T04:14:34;25.17;;;9.38;;
4096;SDS011;2062;50.694;7.246;2024-03-08T04:17:01;27.02;;;10.68;;
4096;SDS011;2062;50.694;7.246;2024-03-08T04:19:29;25.10;;;9.68;;
4096;SDS011;2062;50.694;7.246;2024-03-08T04:21:56;24.87;;;9.90;;
4096;SDS011;2062;50.694;7.246;2024-03-08T04:24:23;27.83;;;9.38;;
4096;SDS011;2062;50.694;7.246;2024-03-08T04:26:50;29.75;;;9.98;;
4096;SDS011;2062;50.694;7.246;2024-03-08T04:29:18;25.52;;;9.82;;
4096;SDS011;2062;50.694;7.246;2024-03-08T04:31:45;25.30;;;9.65;;
4096;SDS011;2062;50.694;7.246;2024-03-08T04:34:12;24.13;;;9.60;;
4096;SDS011;2062;50.694;7.246;2024-03-08T04:36:41;26.40;;;10.05;;
4096;SDS011;2062;50.694;7.246;2024-03-08T04:39:07;27.48;;;10.75;;
4096;SDS011;2062;50.694;7.246;2024-03-08T04:41:38;28.70;;;10.90;;
4096;SDS011;2062;50.694;7.246;2024-03-08T04:44:04;24.45;;;10.05;;
4096;SDS011;2062;50.694;7.246;2024-03-08T04:46:32;26.50;;;10.57;;
4096;SDS011;2062;50.694;7.246;2024-03-08T04:49:00;27.70;;;10.15;;
4096;SDS011;2062;50.694;7.246;2024-03-08T04:51:27;28.63;;;11.43;;
4096;SDS011;2062;50.694;7.246;2024-03-08T04:53:55;27.17;;;9.98;;
4096;SDS011;2062;50.694;7.246;2024-03-08T04:56:22;24.33;;;9.93;;
4096;SDS011;2062;50.694;7.246;2024-03-08T04:58:49;27.77;;;10.07;;
4096;SDS011;2062;50.694;7.246;2024-03-08T05:01:16;27.02;;;9.93;;
4096;SDS011;2062;50.694;7.246;2024-03-08T05:03:43;29.45;;;10.38;;
4096;SDS011;2062;50.694;7.246;2024-03-08T05:06:10;25.67;;;9.95;;
4096;SDS011;2062;50.694;7.246;2024-03-08T05:08:37;25.60;;;10.07;;
4096;SDS011;2062;50.694;7.246;2024-03-08T05:11:05;29.00;;;11.60;;
4096;SDS011;2062;50.694;7.246;2024-03-08T05:13:32;27.30;;;10.43;;
4096;SDS011;2062;50.694;7.246;2024-03-08T05:15:59;27.92;;;10.88;;
4096;SDS011;2062;50.694;7.246;2024-03-08T05:18:26;28.85;;;10.80;;
4096;SDS011;2062;50.694;7.246;2024-03-08T05:20:54;27.00;;;10.25;;
4096;SDS011;2062;50.694;7.246;2024-03-08T05:23:20;25.50;;;9.93;;
4096;SDS011;2062;50.694;7.246;2024-03-08T05:25:47;29.00;;;10.25;;
4096;SDS011;2062;50.694;7.246;2024-03-08T05:28:15;28.45;;;10.60;;
4096;SDS011;2062;50.694;7.246;2024-03-08T05:30:42;26.65;;;9.93;;
4096;SDS011;2062;50.694;7.246;2024-03-08T05:33:09;28.58;;;10.10;;
4096;SDS011;2062;50.694;7.246;2024-03-08T05:35:36;27.60;;;9.87;;
4096;SDS011;2062;50.694;7.246;2024-03-08T05:38:03;26.75;;;9.95;;
4096;SDS011;2062;50.694;7.246;2024-03-08T05:40:30;27.65;;;10.60;;
4096;SDS011;2062;50.694;7.246;2024-03-08T05:42:57;29.60;;;9.82;;
4096;SDS011;2062;50.694;7.246;2024-03-08T05:45:25;28.90;;;11.23;;
4096;SDS011;2062;50.694;7.246;2024-03-08T05:47:52;30.07;;;10.20;;
4096;SDS011;2062;50.694;7.246;2024-03-08T05:50:19;26.83;;;10.10;;
4096;SDS011;2062;50.694;7.246;2024-03-08T05:52:46;30.27;;;10.75;;
4096;SDS011;2062;50.694;7.246;2024-03-08T05:55:14;28.55;;;9.95;;
4096;SDS011;2062;50.694;7.246;2024-03-08T05:57:41;25.85;;;9.50;;
4096;SDS011;2062;50.694;7.246;2024-03-08T06:00:09;26.10;;;9.80;;
4096;SDS011;2062;50.694;7.246;2024-03-08T06:02:38;30.65;;;11.73;;
4096;SDS011;2062;50.694;7.246;2024-03-08T06:05:07;25.45;;;9.82;;
4096;SDS011;2062;50.694;7.246;2024-03-08T06:07:34;27.25;;;10.25;;
4096;SDS011;2062;50.694;7.246;2024-03-08T06:10:01;28.85;;;10.43;;
4096;SDS011;2062;50.694;7.246;2024-03-08T06:12:29;27.37;;;10.93;;
4096;SDS011;2062;50.694;7.246;2024-03-08T06:14:58;27.55;;;10.43;;
4096;SDS011;2062;50.694;7.246;2024-03-08T06:17:24;26.85;;;9.88;;
4096;SDS011;2062;50.694;7.246;2024-03-08T06:19:52;28.63;;;10.75;;
4096;SDS011;2062;50.694;7.246;2024-03-08T06:22:19;29.98;;;12.05;;
4096;SDS011;2062;50.694;7.246;2024-03-08T06:24:46;29.00;;;10.83;;
4096;SDS011;2062;50.694;7.246;2024-03-08T06:27:13;27.85;;;11.10;;
4096;SDS011;2062;50.694;7.246;2024-03-08T06:29:40;29.52;;;11.45;;
4096;SDS011;2062;50.694;7.246;2024-03-08T06:32:06;32.05;;;11.80;;
4096;SDS011;2062;50.694;7.246;2024-03-08T06:34:33;28.48;;;11.25;;
4096;SDS011;2062;50.694;7.246;2024-03-08T06:37:02;29.53;;;10.20;;
4096;SDS011;2062;50.694;7.246;2024-03-08T06:39:28;24.80;;;9.43;;
4096;SDS011;2062;50.694;7.246;2024-03-08T06:41:56;32.22;;;11.55;;
4096;SDS011;2062;50.694;7.246;2024-03-08T06:44:23;29.23;;;10.35;;
4096;SDS011;2062;50.694;7.246;2024-03-08T06:46:50;32.35;;;11.07;;
4096;SDS011;2062;50.694;7.246;2024-03-08T06:49:17;26.63;;;9.63;;
4096;SDS011;2062;50.694;7.246;2024-03-08T06:51:44;33.50;;;11.35;;
4096;SDS011;2062;50.694;7.246;2024-03-08T06:54:12;27.23;;;10.77;;
4096;SDS011;2062;50.694;7.246;2024-03-08T06:56:39;25.40;;;10.07;;
4096;SDS011;2062;50.694;7.246;2024-03-08T06:59:06;28.25;;;11.02;;
4096;SDS011;2062;50.694;7.246;2024-03-08T07:01:35;25.27;;;10.20;;
4096;SDS011;2062;50.694;7.246;2024-03-08T07:04:03;30.50;;;11.43;;
4096;SDS011;2062;50.694;7.246;2024-03-08T07:06:31;28.70;;;11.50;;
4096;SDS011;2062;50.694;7.246;2024-03-08T07:08:59;31.23;;;11.65;;
4096;SDS011;2062;50.694;7.246;2024-03-08T07:11:27;30.48;;;10.65;;
4096;SDS011;2062;50.694;7.246;2024-03-08T07:13:54;27.03;;;10.90;;
4096;SDS011;2062;50.694;7.246;2024-03-08T07:16:20;31.95;;;12.25;;
4096;SDS011;2062;50.694;7.246;2024-03-08T07:18:47;28.02;;;11.93;;
4096;SDS011;2062;50.694;7.246;2024-03-08T07:21:17;32.78;;;12.32;;
4096;SDS011;2062;50.694;7.246;2024-03-08T07:23:44;34.35;;;12.23;;
4096;SDS011;2062;50.694;7.246;2024-03-08T07:26:32;28.50;;;11.07;;
4096;SDS011;2062;50.694;7.246;2024-03-08T07:28:59;28.63;;;11.88;;
4096;SDS011;2062;50.694;7.246;2024-03-08T07:31:26;32.42;;;12.60;;
4096;SDS011;2062;50.694;7.246;2024-03-08T07:34:03;31.20;;;11.73;;
4096;SDS011;2062;50.694;7.246;2024-03-08T07:36:32;27.80;;;11.02;;
4096;SDS011;2062;50.694;7.246;2024-03-08T07:38:59;29.40;;;12.70;;
4096;SDS011;2062;50.694;7.246;2024-03-08T07:41:26;30.88;;;11.38;;
4096;SDS011;2062;50.694;7.246;2024-03-08T07:43:55;29.05;;;11.98;;
4096;SDS011;2062;50.694;7.246;2024-03-08T07:46:22;29.77;;;11.48;;
4096;SDS011;2062;50.694;7.246;2024-03-08T07:48:49;29.13;;;11.70;;
4096;SDS011;2062;50.694;7.246;2024-03-08T07:51:16;30.37;;;12.13;;
4096;SDS011;2062;50.694;7.246;2024-03-08T07:53:43;25.73;;;11.10;;
4096;SDS011;2062;50.694;7.246;2024-03-08T07:56:10;29.15;;;11.85;;
4096;SDS011;2062;50.694;7.246;2024-03-08T07:58:38;25.60;;;11.18;;
4096;SDS011;2062;50.694;7.246;2024-03-08T08:01:08;31.95;;;11.85;;
4096;SDS011;2062;50.694;7.246;2024-03-08T08:03:41;28.37;;;11.30;;
4096;SDS011;2062;50.694;7.246;2024-03-08T08:06:08;26.35;;;11.23;;
4096;SDS011;2062;50.694;7.246;2024-03-08T08:08:35;30.13;;;12.30;;
4096;SDS011;2062;50.694;7.246;2024-03-08T08:11:01;31.98;;;12.18;;
4096;SDS011;2062;50.694;7.246;2024-03-08T08:13:28;30.55;;;12.25;;
4096;SDS011;2062;50.694;7.246;2024-03-08T08:15:57;24.20;;;10.87;;
4096;SDS011;2062;50.694;7.246;2024-03-08T08:18:25;25.50;;;10.85;;
4096;SDS011;2062;50.694;7.246;2024-03-08T08:20:52;23.65;;;10.55;;
4096;SDS011;2062;50.694;7.246;2024-03-08T08:23:19;25.55;;;11.75;;
4096;SDS011;2062;50.694;7.246;2024-03-08T08:25:45;26.70;;;11.15;;
4096;SDS011;2062;50.694;7.246;2024-03-08T08:28:15;25.90;;;11.70;;
4096;SDS011;2062;50.694;7.246;2024-03-08T08:30:42;27.20;;;11.43;;
4096;SDS011;2062;50.694;7.246;2024-03-08T08:33:09;24.77;;;10.82;;
4096;SDS011;2062;50.694;7.246;2024-03-08T08:35:37;24.27;;;10.30;;
4096;SDS011;2062;50.694;7.246;2024-03-08T08:38:04;25.05;;;11.10;;
4096;SDS011;2062;50.694;7.246;2024-03-08T08:40:32;23.67;;;10.43;;
4096;SDS011;2062;50.694;7.246;2024-03-08T08:43:01;23.60;;;10.55;;
4096;SDS011;2062;50.694;7.246;2024-03-08T08:45:29;24.52;;;10.75;;
4096;SDS011;2062;50.694;7.246;2024-03-08T08:47:56;26.75;;;10.85;;
4096;SDS011;2062;50.694;7.246;2024-03-08T08:50:24;24.10;;;10.98;;
4096;SDS011;2062;50.694;7.246;2024-03-08T08:52:53;23.47;;;11.23;;
4096;SDS011;2062;50.694;7.246;2024-03-08T08:55:20;20.67;;;9.50;;
4096;SDS011;2062;50.694;7.246;2024-03-08T08:57:50;23.48;;;10.52;;
4096;SDS011;2062;50.694;7.246;2024-03-08T09:00:17;23.92;;;9.98;;
4096;SDS011;2062;50.694;7.246;2024-03-08T09:02:45;22.65;;;11.20;;
4096;SDS011;2062;50.694;7.246;2024-03-08T09:05:13;20.80;;;10.07;;
4096;SDS011;2062;50.694;7.246;2024-03-08T09:07:42;20.38;;;9.50;;
4096;SDS011;2062;50.694;7.246;2024-03-08T09:10:11;22.20;;;9.48;;
4096;SDS011;2062;50.694;7.246;2024-03-08T09:12:39;22.00;;;9.75;;
4096;SDS011;2062;50.694;7.246;2024-03-08T09:15:06;21.85;;;10.10;;
4096;SDS011;2062;50.694;7.246;2024-03-08T09:17:36;19.43;;;9.70;;
4096;SDS011;2062;50.694;7.246;2024-03-08T09:20:04;20.83;;;9.75;;
4096;SDS011;2062;50.694;7.246;2024-03-08T09:22:32;22.23;;;9.48;;
4096;SDS011;2062;50.694;7.246;2024-03-08T09:24:59;21.98;;;9.75;;
4096;SDS011;2062;50.694;7.246;2024-03-08T09:27:27;19.50;;;9.10;;
4096;SDS011;2062;50.694;7.246;2024-03-08T09:29:55;20.60;;;9.40;;
4096;SDS011;2062;50.694;7.246;2024-03-08T09:32:21;19.42;;;9.10;;
4096;SDS011;2062;50.694;7.246;2024-03-08T09:34:48;19.75;;;9.68;;
4096;SDS011;2062;50.694;7.246;2024-03-08T09:37:16;20.23;;;9.75;;
4096;SDS011;2062;50.694;7.246;2024-03-08T09:39:43;21.77;;;9.55;;
4096;SDS011;2062;50.694;7.246;2024-03-08T09:42:10;20.00;;;8.77;;
4096;SDS011;2062;50.694;7.246;2024-03-08T09:44:41;20.50;;;9.43;;
4096;SDS011;2062;50.694;7.246;2024-03-08T09:47:11;21.05;;;9.63;;
4096;SDS011;2062;50.694;7.246;2024-03-08T09:49:40;24.45;;;9.30;;
4096;SDS011;2062;50.694;7.246;2024-03-08T09:52:08;22.60;;;9.55;;
4096;SDS011;2062;50.694;7.246;2024-03-08T09:54:37;20.63;;;9.83;;
4096;SDS011;2062;50.694;7.246;2024-03-08T09:57:04;18.70;;;9.15;;
4096;SDS011;2062;50.694;7.246;2024-03-08T09:59:34;19.90;;;9.30;;
4096;SDS011;2062;50.694;7.246;2024-03-08T10:02:13;17.23;;;8.55;;
4096;SDS011;2062;50.694;7.246;2024-03-08T10:04:42;18.17;;;8.98;;
4096;SDS011;2062;50.694;7.246;2024-03-08T10:07:11;20.33;;;8.50;;
4096;SDS011;2062;50.694;7.246;2024-03-08T10:09:38;18.35;;;8.48;;
4096;SDS011;2062;50.694;7.246;2024-03-08T10:12:06;18.70;;;8.70;;
4096;SDS011;2062;50.694;7.246;2024-03-08T10:14:34;17.70;;;8.20;;
4096;SDS011;2062;50.694;7.246;2024-03-08T10:17:05;19.30;;;8.80;;
4096;SDS011;2062;50.694;7.246;2024-03-08T10:19:33;18.40;;;8.87;;
4096;SDS011;2062;50.694;7.246;2024-03-08T10:22:01;19.40;;;9.38;;
4096;SDS011;2062;50.694;7.246;2024-03-08T10:24:29;20.00;;;9.25;;
4096;SDS011;2062;50.694;7.246;2024-03-08T10:26:58;21.52;;;9.48;;
4096;SDS011;2062;50.694;7.246;2024-03-08T10:29:26;18.77;;;9.38;;
4096;SDS011;2062;50.694;7.246;2024-03-08T10:31:54;18.40;;;8.90;;
4096;SDS011;2062;50.694;7.246;2024-03-08T10:34:22;17.27;;;8.07;;
4096;SDS011;2062;50.694;7.246;2024-03-08T10:36:51;19.85;;;9.43;;
4096;SDS011;2062;50.694;7.246;2024-03-08T10:39:21;18.88;;;8.35;;
4096;SDS011;2062;50.694;7.246;2024-03-08T10:41:50;18.23;;;9.48;;
4096;SDS011;2062;50.694;7.246;2024-03-08T10:44:26;17.33;;;8.57;;
4096;SDS011;2062;50.694;7.246;2024-03-08T10:47:09;19.13;;;8.70;;
4096;SDS011;2062;50.694;7.246;2024-03-08T10:49:45;19.10;;;9.15;;
4096;SDS011;2062;50.694;7.246;2024-03-08T10:52:18;17.02;;;8.18;;
4096;SDS011;2062;50.694;7.246;2024-03-08T10:54:45;17.13;;;8.40;;
4096;SDS011;2062;50.694;7.246;2024-03-08T10:57:14;17.63;;;8.20;;
4096;SDS011;2062;50.694;7.246;2024-03-08T10:59:45;17.08;;;7.95;;
4096;SDS011;2062;50.694;7.246;2024-03-08T11:02:14;15.77;;;7.88;;
4096;SDS011;2062;50.694;7.246;2024-03-08T11:04:45;16.20;;;7.57;;
4096;SDS011;2062;50.694;7.246;2024-03-08T11:07:14;16.52;;;8.38;;
4096;SDS011;2062;50.694;7.246;2024-03-08T11:09:46;17.70;;;7.93;;
4096;SDS011;2062;50.694;7.246;2024-03-08T11:12:21;19.33;;;8.35;;
4096;SDS011;2062;50.694;7.246;2024-03-08T11:14:51;15.70;;;7.60;;
4096;SDS011;2062;50.694;7.246;2024-03-08T11:17:22;15.70;;;7.53;;
4096;SDS011;2062;50.694;7.246;2024-03-08T11:19:52;16.23;;;7.45;;
4096;SDS011;2062;50.694;7.246;2024-03-08T11:22:22;19.73;;;7.07;;
4096;SDS011;2062;50.694;7.246;2024-03-08T11:24:54;15.73;;;7.43;;
4096;SDS011;2062;50.694;7.246;2024-03-08T11:27:28;17.15;;;8.00;;
4096;SDS011;2062;50.694;7.246;2024-03-08T11:29:59;16.52;;;7.45;;
4096;SDS011;2062;50.694;7.246;2024-03-08T11:32:34;15.60;;;7.47;;
4096;SDS011;2062;50.694;7.246;2024-03-08T11:35:03;16.53;;;7.27;;
4096;SDS011;2062;50.694;7.246;2024-03-08T11:37:33;15.02;;;6.88;;
4096;SDS011;2062;50.694;7.246;2024-03-08T11:40:02;17.65;;;7.75;;
4096;SDS011;2062;50.694;7.246;2024-03-08T11:42:43;13.30;;;6.85;;
4096;SDS011;2062;50.694;7.246;2024-03-08T11:45:11;15.25;;;7.38;;
4096;SDS011;2062;50.694;7.246;2024-03-08T11:47:38;15.40;;;6.90;;
4096;SDS011;2062;50.694;7.246;2024-03-08T11:50:09;15.55;;;7.07;;
4096;SDS011;2062;50.694;7.246;2024-03-08T11:52:37;15.75;;;7.10;;
4096;SDS011;2062;50.694;7.246;2024-03-08T11:55:06;14.73;;;6.50;;
4096;SDS011;2062;50.694;7.246;2024-03-08T11:57:33;14.13;;;6.70;;
4096;SDS011;2062;50.694;7.246;2024-03-08T12:00:00;15.07;;;7.00;;
4096;SDS011;2062;50.694;7.246;2024-03-08T12:02:31;15.50;;;7.03;;
4096;SDS011;2062;50.694;7.246;2024-03-08T12:05:00;13.77;;;7.10;;
4096;SDS011;2062;50.694;7.246;2024-03-08T12:07:28;15.73;;;7.10;;
4096;SDS011;2062;50.694;7.246;2024-03-08T12:10:17;14.68;;;6.55;;
4096;SDS011;2062;50.694;7.246;2024-03-08T12:12:46;13.40;;;5.93;;
4096;SDS011;2062;50.694;7.246;2024-03-08T12:15:14;14.13;;;6.45;;
4096;SDS011;2062;50.694;7.246;2024-03-08T12:17:43;14.38;;;6.45;;
4096;SDS011;2062;50.694;7.246;2024-03-08T12:20:14;15.52;;;6.70;;
4096;SDS011;2062;50.694;7.246;2024-03-08T12:22:42;13.77;;;7.30;;
4096;SDS011;2062;50.694;7.246;2024-03-08T12:25:10;12.80;;;5.87;;
4096;SDS011;2062;50.694;7.246;2024-03-08T12:27:40;14.88;;;6.32;;
4096;SDS011;2062;50.694;7.246;2024-03-08T12:30:17;15.38;;;7.28;;
4096;SDS011;2062;50.694;7.246;2024-03-08T12:32:47;13.23;;;6.22;;
4096;SDS011;2062;50.694;7.246;2024-03-08T12:35:17;13.07;;;6.68;;
4096;SDS011;2062;50.694;7.246;2024-03-08T12:37:43;14.40;;;6.57;;
4096;SDS011;2062;50.694;7.246;2024-03-08T12:40:10;12.23;;;5.95;;
4096;SDS011;2062;50.694;7.246;2024-03-08T12:42:43;14.27;;;6.53;;
4096;SDS011;2062;50.694;7.246;2024-03-08T12:45:12;12.95;;;5.90;;
4096;SDS011;2062;50.694;7.246;2024-03-08T12:47:39;12.23;;;6.45;;
4096;SDS011;2062;50.694;7.246;2024-03-08T12:50:08;13.73;;;6.00;;
4096;SDS011;2062;50.694;7.246;2024-03-08T12:52:35;12.85;;;6.43;;
4096;SDS011;2062;50.694;7.246;2024-03-08T12:55:02;12.60;;;6.30;;
4096;SDS011;2062;50.694;7.246;2024-03-08T12:57:32;12.55;;;6.30;;
4096;SDS011;2062;50.694;7.246;2024-03-08T13:00:01;13.32;;;6.18;;
4096;SDS011;2062;50.694;7.246;2024-03-08T13:02:29;14.00;;;6.57;;
4096;SDS011;2062;50.694;7.246;2024-03-08T13:04:57;14.05;;;6.70;;
4096;SDS011;2062;50.694;7.246;2024-03-08T13:07:24;13.20;;;6.45;;
4096;SDS011;2062;50.694;7.246;2024-03-08T13:09:51;13.23;;;6.72;;
4096;SDS011;2062;50.694;7.246;2024-03-08T13:12:19;15.73;;;7.07;;
4096;SDS011;2062;50.694;7.246;2024-03-08T13:14:46;12.70;;;6.13;;
4096;SDS011;2062;50.694;7.246;2024-03-08T13:17:14;12.65;;;6.40;;
4096;SDS011;2062;50.694;7.246;2024-03-08T13:19:43;14.07;;;6.45;;
4096;SDS011;2062;50.694;7.246;2024-03-08T13:22:10;13.15;;;6.35;;
4096;SDS011;2062;50.694;7.246;2024-03-08T13:24:38;12.50;;;6.55;;
4096;SDS011;2062;50.694;7.246;2024-03-08T13:27:06;14.57;;;6.47;;
4096;SDS011;2062;50.694;7.246;2024-03-08T13:29:44;13.20;;;6.20;;
4096;SDS011;2062;50.694;7.246;2024-03-08T13:32:12;12.98;;;6.45;;
4096;SDS011;2062;50.694;7.246;2024-03-08T13:34:41;14.20;;;6.35;;
4096;SDS011;2062;50.694;7.246;2024-03-08T13:37:08;12.85;;;6.00;;
4096;SDS011;2062;50.694;7.246;2024-03-08T13:39:36;12.93;;;6.50;;
4096;SDS011;2062;50.694;7.246;2024-03-08T13:42:08;13.52;;;6.47;;
4096;SDS011;2062;50.694;7.246;2024-03-08T13:44:37;13.32;;;6.47;;
4096;SDS011;2062;50.694;7.246;2024-03-08T13:47:05;13.80;;;6.18;;
4096;SDS011;2062;50.694;7.246;2024-03-08T13:49:33;14.68;;;6.40;;
4096;SDS011;2062;50.694;7.246;2024-03-08T13:52:01;13.57;;;6.53;;
4096;SDS011;2062;50.694;7.246;2024-03-08T13:54:29;13.30;;;6.30;;
4096;SDS011;2062;50.694;7.246;2024-03-08T13:56:56;15.38;;;6.95;;
4096;SDS011;2062;50.694;7.246;2024-03-08T13:59:23;13.77;;;6.63;;
4096;SDS011;2062;50.694;7.246;2024-03-08T14:01:54;15.40;;;6.75;;
4096;SDS011;2062;50.694;7.246;2024-03-08T14:04:21;14.00;;;6.50;;
4096;SDS011;2062;50.694;7.246;2024-03-08T14:06:50;12.82;;;6.57;;
4096;SDS011;2062;50.694;7.246;2024-03-08T14:09:21;14.43;;;6.57;;
4096;SDS011;2062;50.694;7.246;2024-03-08T14:11:49;17.60;;;6.80;;
4096;SDS011;2062;50.694;7.246;2024-03-08T14:14:18;16.83;;;6.80;;
4096;SDS011;2062;50.694;7.246;2024-03-08T14:16:45;14.70;;;6.10;;
4096;SDS011;2062;50.694;7.246;2024-03-08T14:19:12;12.60;;;5.97;;
4096;SDS011;2062;50.694;7.246;2024-03-08T14:21:40;13.20;;;6.47;;
4096;SDS011;2062;50.694;7.246;2024-03-08T14:24:09;12.98;;;6.30;;
4096;SDS011;2062;50.694;7.246;2024-03-08T14:26:36;12.80;;;6.50;;
4096;SDS011;2062;50.694;7.246;2024-03-08T14:29:03;14.10;;;6.03;;
4096;SDS011;2062;50.694;7.246;2024-03-08T14:31:30;14.45;;;6.25;;
4096;SDS011;2062;50.694;7.246;2024-03-08T14:33:57;13.50;;;6.18;;
4096;SDS011;2062;50.694;7.246;2024-03-08T14:36:24;13.48;;;6.32;;
4096;SDS011;2062;50.694;7.246;2024-03-08T14:38:51;14.00;;;6.53;;
4096;SDS011;2062;50.694;7.246;2024-03-08T14:41:20;13.60;;;7.10;;
4096;SDS011;2062;50.694;7.246;2024-03-08T14:43:47;13.82;;;6.47;;
4096;SDS011;2062;50.694;7.246;2024-03-08T14:46:14;13.85;;;6.43;;
4096;SDS011;2062;50.694;7.246;2024-03-08T14:48:42;12.50;;;6.03;;
4096;SDS011;2062;50.694;7.246;2024-03-08T14:51:09;13.65;;;6.60;;
4096;SDS011;2062;50.694;7.246;2024-03-08T14:53:39;13.97;;;6.70;;
4096;SDS011;2062;50.694;7.246;2024-03-08T14:56:06;13.88;;;6.15;;
4096;SDS011;2062;50.694;7.246;2024-03-08T14:58:35;13.73;;;6.78;;
4096;SDS011;2062;50.694;7.246;2024-03-08T15:01:03;13.48;;;6.07;;